createdAt,value
2019-05-17T00:01:22.442Z,36.299999
2019-05-17T00:02:22.494Z,36.799999
2019-05-17T00:03:22.578Z,35.900002
2019-05-17T00:04:22.665Z,35.700001
2019-05-17T00:05:22.710Z,36.400002
2019-05-17T00:06:22.787Z,37.400002
2019-05-17T00:07:22.875Z,37
2019-05-17T00:08:31.822Z,37.200001
2019-05-17T00:11:23.105Z,36.599998
2019-05-17T00:12:23.197Z,36.099998
2019-05-17T00:13:23.309Z,36.200001
2019-05-17T00:14:23.359Z,38.599998
2019-05-17T00:15:23.404Z,36.700001
2019-05-17T00:16:23.517Z,36.599998
2019-05-17T00:17:23.609Z,36.799999
2019-05-17T00:18:23.691Z,38.700001
2019-05-17T00:21:23.866Z,40.400002
2019-05-17T00:22:23.920Z,40.299999
2019-05-17T00:23:23.982Z,38.400002
2019-05-17T00:24:26.332Z,39.200001
2019-05-17T00:25:27.296Z,39.299999
2019-05-17T00:26:26.895Z,40.299999
2019-05-17T00:27:26.456Z,40.400002
2019-05-17T00:28:26.872Z,41
2019-05-17T00:30:26.504Z,40.400002
2019-05-17T00:31:26.269Z,40.700001
2019-05-17T00:32:24.604Z,39.5
2019-05-17T00:33:27.065Z,40.200001
2019-05-17T00:34:27.001Z,40
2019-05-17T00:35:26.725Z,40.599998
2019-05-17T00:36:26.896Z,40.099998
2019-05-17T00:37:26.406Z,40.299999
2019-05-17T00:41:26.860Z,41.799999
2019-05-17T00:42:26.491Z,41.700001
2019-05-17T00:43:26.208Z,41
2019-05-17T00:44:51.339Z,41.299999
2019-05-17T00:45:26.695Z,41.900002
2019-05-17T00:46:26.780Z,42.400002
2019-05-17T00:47:26.532Z,41.799999
2019-05-17T00:48:26.692Z,42.5
2019-05-17T00:49:26.392Z,43.599998
2019-05-17T00:50:27.470Z,43.700001
2019-05-17T00:51:27.356Z,43.099998
2019-05-17T00:52:27.203Z,42.200001
2019-05-17T00:53:27.019Z,42.900002
2019-05-17T00:54:26.885Z,42.200001
2019-05-17T00:55:27.068Z,41.099998
2019-05-17T00:56:26.585Z,43.400002
2019-05-17T00:57:27.327Z,41.5
2019-05-17T00:58:27.257Z,40.900002
2019-05-17T00:59:26.408Z,41.799999
2019-05-17T01:00:27.765Z,41.900002
2019-05-17T01:01:27.408Z,40.200001
2019-05-17T01:02:26.950Z,42
2019-05-17T01:03:27.001Z,41.599998
2019-05-17T01:04:27.569Z,41.299999
2019-05-17T01:05:27.676Z,43.5
2019-05-17T01:06:27.494Z,40.900002
2019-05-17T01:07:26.999Z,42.900002
2019-05-17T01:08:26.816Z,43.5
2019-05-17T01:11:27.174Z,44.200001
2019-05-17T01:12:27.305Z,42
2019-05-17T01:13:27.056Z,43.799999
2019-05-17T01:14:27.122Z,42.400002
2019-05-17T01:15:27.362Z,44.400002
2019-05-17T01:16:27.299Z,43.400002
2019-05-17T01:17:27.237Z,42.799999
2019-05-17T01:18:27.275Z,42.700001
2019-05-17T01:21:27.445Z,41.200001
2019-05-17T01:22:27.499Z,39.700001
2019-05-17T01:23:27.548Z,41.700001
2019-05-17T01:24:27.643Z,44.200001
2019-05-17T01:25:27.710Z,41.099998
2019-05-17T01:26:27.762Z,45.599998
2019-05-17T01:27:27.835Z,45
2019-05-17T01:28:27.876Z,43.900002
2019-05-17T01:31:28.159Z,47.299999
2019-05-17T01:32:28.382Z,45.5
2019-05-17T01:33:28.250Z,46.599998
2019-05-17T01:34:28.333Z,42.900002
2019-05-17T01:35:28.381Z,43.5
2019-05-17T01:36:28.426Z,44.599998
2019-05-17T01:37:28.464Z,45.099998
2019-05-17T01:38:28.510Z,44.900002
2019-05-17T01:41:28.679Z,44.700001
2019-05-17T01:42:28.729Z,43.299999
2019-05-17T01:43:28.784Z,42.299999
2019-05-17T01:44:28.832Z,45.099998
2019-05-17T01:45:28.925Z,43.400002
2019-05-17T01:46:28.996Z,46.200001
2019-05-17T01:47:29.048Z,42
2019-05-17T01:48:29.091Z,42.299999
2019-05-17T01:51:29.244Z,40.900002
2019-05-17T01:52:29.297Z,44
2019-05-17T01:53:29.346Z,45.900002
2019-05-17T01:54:29.428Z,43.299999
2019-05-17T01:55:29.506Z,43.5
2019-05-17T01:56:29.558Z,43
2019-05-17T01:57:29.607Z,42.099998
2019-05-17T01:58:29.704Z,42.700001
2019-05-17T02:01:29.948Z,40.900002
2019-05-17T02:02:30.025Z,42.099998
2019-05-17T02:03:30.079Z,45.799999
2019-05-17T02:04:30.143Z,44.599998
2019-05-17T02:05:30.223Z,43.299999
2019-05-17T02:06:30.295Z,41.700001
2019-05-17T02:07:31.354Z,41.900002
2019-05-17T02:08:30.393Z,42.200001
2019-05-17T02:11:30.582Z,42.599998
2019-05-17T02:12:30.627Z,42.299999
2019-05-17T02:13:30.669Z,42.5
2019-05-17T02:14:30.726Z,44.700001
2019-05-17T02:15:30.821Z,48.700001
2019-05-17T02:16:30.873Z,51.799999
2019-05-17T02:17:30.935Z,45
2019-05-17T02:18:31.000Z,44.299999
2019-05-17T02:21:31.193Z,42.400002
2019-05-17T02:22:31.246Z,42
2019-05-17T02:23:31.286Z,40.5
2019-05-17T02:24:31.347Z,39.799999
2019-05-17T02:25:31.395Z,42.700001
2019-05-17T02:26:31.477Z,39.900002
2019-05-17T02:27:35.552Z,39.799999
2019-05-17T02:31:32.785Z,42
2019-05-17T02:32:33.612Z,38.5
2019-05-17T02:33:33.290Z,38.299999
2019-05-17T02:34:33.663Z,41.5
2019-05-17T02:35:33.757Z,41.299999
2019-05-17T02:36:33.325Z,41.900002
2019-05-17T02:37:33.371Z,42
2019-05-17T02:38:33.552Z,41.299999
2019-05-17T02:39:32.630Z,41.299999
2019-05-17T02:40:33.890Z,41.700001
2019-05-17T02:41:33.372Z,42.200001
2019-05-17T02:42:33.256Z,40.700001
2019-05-17T02:43:33.759Z,41.900002
2019-05-17T02:44:33.464Z,41.599998
2019-05-17T02:45:33.482Z,40.400002
2019-05-17T02:46:33.908Z,41.200001
2019-05-17T02:47:33.565Z,40.299999
2019-05-17T02:48:34.170Z,40
2019-05-17T02:49:33.227Z,41.400002
2019-05-17T02:50:33.252Z,38.099998
2019-05-17T02:51:32.710Z,39.200001
2019-05-17T02:52:33.049Z,39.200001
2019-05-17T02:53:33.582Z,38.099998
2019-05-17T02:54:33.791Z,37.299999
2019-05-17T02:55:32.833Z,37.400002
2019-05-17T02:56:32.934Z,38.799999
2019-05-17T02:57:34.616Z,36.299999
2019-05-17T02:58:34.006Z,39
2019-05-17T02:59:33.381Z,39
2019-05-17T03:00:34.131Z,38.700001
2019-05-17T03:02:34.038Z,40.799999
2019-05-17T03:03:34.193Z,40.099998
2019-05-17T03:04:33.238Z,41.5
2019-05-17T03:05:33.982Z,41
2019-05-17T03:06:33.303Z,41.099998
2019-05-17T03:07:33.367Z,39.200001
2019-05-17T03:08:34.266Z,39.099998
2019-05-17T03:11:33.620Z,42.700001
2019-05-17T03:12:33.580Z,43.700001
2019-05-17T03:13:33.623Z,45.900002
2019-05-17T03:14:33.661Z,40.400002
2019-05-17T03:15:33.705Z,39.700001
2019-05-17T03:16:34.091Z,39.200001
2019-05-17T03:17:34.201Z,42.900002
2019-05-17T03:18:33.981Z,40.5
2019-05-17T03:21:34.131Z,41.799999
2019-05-17T03:22:34.031Z,38.400002
2019-05-17T03:23:34.083Z,39.099998
2019-05-17T03:24:34.108Z,43.900002
2019-05-17T03:25:34.175Z,40.599998
2019-05-17T03:26:34.211Z,40.700001
2019-05-17T03:27:34.296Z,40.700001
2019-05-17T03:28:34.440Z,39.5
2019-05-17T03:31:42.310Z,42.299999
2019-05-17T03:32:36.741Z,41.200001
2019-05-17T03:33:36.490Z,41.5
2019-05-17T03:34:36.789Z,40.700001
2019-05-17T03:35:37.293Z,40.099998
2019-05-17T03:36:36.827Z,43
2019-05-17T03:37:37.774Z,45
2019-05-17T03:39:34.760Z,41.700001
2019-05-17T03:41:03.127Z,40.299999
2019-05-17T03:41:35.788Z,41.799999
2019-05-17T03:42:34.998Z,44.400002
2019-05-17T03:43:35.466Z,42
2019-05-17T03:44:34.954Z,47.099998
2019-05-17T03:45:35.020Z,44
2019-05-17T03:46:35.114Z,44.900002
2019-05-17T03:47:35.211Z,41.700001
2019-05-17T03:48:35.351Z,44.099998
2019-05-17T04:41:45.222Z,33.200001
2019-05-17T06:05:42.167Z,14.2
2019-05-17T06:06:41.890Z,12.9
2019-05-17T06:07:41.641Z,13.9
2019-05-17T06:23:42.369Z,12.1
2019-05-17T06:24:42.612Z,12.3
2019-05-17T06:25:43.414Z,12.6
2019-05-17T06:26:42.491Z,12.2
2019-05-17T06:27:41.801Z,12.2
2019-05-17T08:14:45.891Z,8.6
2019-05-17T08:15:45.898Z,10.3
2019-05-17T08:16:45.919Z,8.5
2019-05-17T08:17:45.914Z,8
2019-05-17T08:18:45.910Z,9.8
2019-05-17T08:22:46.109Z,8.4
2019-05-17T08:23:46.200Z,8.9
2019-05-17T08:24:46.259Z,9
2019-05-17T08:25:52.568Z,8.3
2019-05-17T08:26:47.358Z,8.4
2019-05-17T08:29:41.804Z,9
2019-05-17T08:30:41.801Z,9
2019-05-17T08:31:41.848Z,9.1
2019-05-17T12:16:49.754Z,7.1
2019-05-17T12:35:49.310Z,7
2019-05-17T12:36:49.291Z,7.2
2019-05-17T12:37:49.388Z,6.7
2019-05-17T12:38:49.358Z,6.8
2019-05-17T12:39:49.374Z,5.7
2019-05-17T12:40:49.383Z,6
2019-05-17T12:41:49.411Z,5.4
2019-05-17T12:42:49.441Z,5.8
2019-05-17T12:43:49.498Z,5.3
2019-05-17T12:44:50.055Z,6.4
2019-05-17T12:45:59.914Z,5.3
2019-05-17T12:46:50.744Z,4.4
2019-05-17T12:47:49.793Z,5.1
2019-05-17T12:48:49.818Z,4.6
2019-05-17T12:49:51.137Z,4.8
2019-05-17T12:50:51.033Z,4.7
2019-05-17T12:53:50.701Z,4.2
2019-05-17T12:54:50.406Z,5.1
2019-05-17T12:59:50.600Z,4.8
2019-05-17T13:01:50.618Z,4.9
2019-05-17T13:02:50.643Z,5.2
2019-05-17T13:03:50.719Z,4.7
2019-05-17T13:04:50.742Z,4.3
2019-05-17T13:05:50.779Z,5.3
2019-05-17T13:06:50.840Z,6.5
2019-05-17T13:07:50.855Z,6.4
2019-05-17T13:08:50.994Z,4.9
2019-05-17T13:09:51.010Z,4.9
2019-05-17T13:10:51.180Z,4.3
2019-05-17T13:11:51.037Z,4.4
2019-05-17T13:12:51.051Z,4.1
2019-05-17T13:13:51.109Z,4.9
2019-05-17T13:14:51.160Z,3.7
2019-05-17T13:15:51.186Z,3.6
2019-05-17T13:16:51.219Z,4.3
2019-05-17T13:17:51.237Z,4.9
2019-05-17T13:18:51.242Z,3.5
2019-05-17T13:19:51.299Z,3.8
2019-05-17T13:20:51.336Z,3.6
2019-05-17T13:21:51.377Z,3.6
2019-05-17T14:06:52.959Z,3.4
2019-05-17T14:07:52.960Z,3.5
2019-05-17T14:10:53.066Z,3.7
2019-05-17T14:11:53.098Z,3.9
2019-05-17T16:12:00.569Z,8.7
2019-05-17T16:23:00.552Z,64.400002
2019-05-17T16:24:00.643Z,17.6
2019-05-17T16:25:00.662Z,11.9
2019-05-17T16:26:01.700Z,8.4
2019-05-17T16:27:00.727Z,7
2019-05-17T16:28:00.728Z,7
2019-05-17T16:29:00.762Z,6.3
2019-05-17T16:30:00.764Z,6.7
2019-05-17T16:31:00.835Z,7.7
2019-05-17T16:32:00.871Z,8.3
2019-05-17T16:33:00.903Z,7.2
2019-05-17T16:34:00.972Z,7
2019-05-17T16:35:01.005Z,7.5
2019-05-17T16:36:01.043Z,6.9
2019-05-17T16:37:01.029Z,9.7
2019-05-17T16:38:01.078Z,7.9
2019-05-17T16:39:01.173Z,7.5
2019-05-17T16:40:01.350Z,7.8
2019-05-17T16:41:01.429Z,8.4
2019-05-17T16:42:01.543Z,8.1
2019-05-17T16:43:15.851Z,9.8
2019-05-17T16:45:01.976Z,10.5
2019-05-17T16:46:01.932Z,9.1
2019-05-17T16:47:01.862Z,8.6
2019-05-17T16:48:01.982Z,9.2
2019-05-17T16:49:02.132Z,11.9
2019-05-17T16:50:02.297Z,9.1
2019-05-17T16:51:02.338Z,9.3
2019-05-17T16:52:02.178Z,9.4
2019-05-17T16:53:05.771Z,10.5
2019-05-17T16:55:02.293Z,9.9
2019-05-17T16:56:02.230Z,9.4
2019-05-17T16:57:02.395Z,9.9
2019-05-17T16:58:02.424Z,9.7
2019-05-17T16:59:02.440Z,11
2019-05-17T17:00:02.547Z,10.9
2019-05-17T17:01:03.717Z,11.6
2019-05-17T17:03:02.620Z,10
2019-05-17T19:07:10.576Z,11.2
2019-05-17T19:08:10.711Z,12.7
2019-05-17T19:09:10.728Z,10.9
2019-05-17T19:11:34.052Z,10.8
2019-05-17T19:40:21.465Z,12.1
2019-05-17T19:44:35.642Z,14
2019-05-17T19:45:35.774Z,14.4
2019-05-17T19:46:35.846Z,13
2019-05-17T19:47:35.925Z,13.3
2019-05-17T20:42:41.067Z,15.7
2019-05-17T20:43:41.137Z,14.7
2019-05-17T20:44:41.236Z,15.3
2019-05-17T20:45:41.359Z,16.700001
2019-05-17T20:46:41.434Z,18.299999
2019-05-17T20:47:41.518Z,18.799999
2019-05-17T20:48:41.598Z,18.4
2019-05-17T20:49:41.685Z,17.6
2019-05-17T20:50:41.813Z,16.200001
2019-05-17T20:51:41.912Z,16.299999
2019-05-17T20:52:41.995Z,16
2019-05-17T20:53:42.053Z,16.299999
2019-05-17T20:54:42.134Z,16
2019-05-17T20:55:42.211Z,15.7
2019-05-17T20:56:42.301Z,15.7
2019-05-17T20:57:42.362Z,15.7
2019-05-17T21:07:43.173Z,16.299999
2019-05-17T21:15:47.683Z,16.9
2019-05-17T21:16:44.936Z,16.5
2019-05-17T21:17:44.181Z,15.4
2019-05-17T21:24:44.600Z,18.700001
2019-05-17T21:25:44.675Z,21.200001
2019-05-17T21:26:44.770Z,20.200001
2019-05-17T21:27:44.851Z,20.799999
2019-05-17T21:48:46.578Z,23.799999
2019-05-17T21:57:47.432Z,20.4
2019-05-17T21:58:47.388Z,20.5
2019-05-17T21:59:47.443Z,20.799999
2019-05-17T22:00:47.521Z,22
2019-05-17T22:04:47.827Z,21
2019-05-17T22:05:47.892Z,22.799999
2019-05-17T22:06:48.025Z,22.5
2019-05-17T22:07:48.096Z,24.6
2019-05-17T22:08:48.274Z,21.200001
2019-05-17T22:09:48.194Z,22.200001
2019-05-17T22:12:48.432Z,23.700001
2019-05-17T22:13:48.608Z,21.9
2019-05-17T22:14:48.484Z,22.200001
2019-05-17T22:18:48.912Z,18.9
2019-05-17T22:19:48.971Z,20.6
2019-05-17T22:20:49.084Z,20.4
2019-05-17T22:21:49.187Z,20.1
2019-05-17T22:29:49.851Z,19.799999
2019-05-17T22:30:49.946Z,20.9
2019-05-17T22:41:50.871Z,22.799999
2019-05-17T22:42:50.935Z,21.1
2019-05-17T22:43:51.002Z,20.799999
2019-05-17T22:44:51.133Z,20.799999
2019-05-17T22:45:51.226Z,20.799999
2019-05-17T22:46:51.299Z,21
2019-05-17T22:47:51.360Z,20.6
2019-05-17T22:48:51.435Z,22.6
2019-05-17T22:49:51.550Z,20.4
2019-05-17T22:50:51.629Z,21.299999
2019-05-17T22:54:51.933Z,22.700001
2019-05-17T22:55:51.996Z,22.799999
2019-05-17T23:02:52.598Z,22.700001
2019-05-17T23:44:55.518Z,29.1
2019-05-17T23:45:55.627Z,28.4
2019-05-17T23:47:06.449Z,27.700001
2019-05-17T23:47:56.759Z,24.299999
2019-05-17T23:48:55.857Z,24.299999
2019-05-17T23:54:56.386Z,32.200001
2019-05-17T23:55:56.507Z,30
2019-05-17T23:56:56.634Z,31.299999
2019-05-17T23:57:56.695Z,31.1
2019-05-17T23:58:56.789Z,29
2019-05-17T23:59:56.871Z,29.799999
